createdAt,value
2019-06-15T00:00:05.264Z,17.59
2019-06-15T00:01:00.577Z,17.57
2019-06-15T00:02:00.444Z,17.67
2019-06-15T00:03:01.269Z,17.60
2019-06-15T00:04:05.297Z,17.57
2019-06-15T00:05:00.468Z,17.63
2019-06-15T00:06:00.696Z,17.64
2019-06-15T00:07:00.579Z,17.71
2019-06-15T00:08:00.490Z,17.65
2019-06-15T00:09:00.555Z,17.68
2019-06-15T00:10:00.645Z,17.67
2019-06-15T00:11:01.335Z,17.70
2019-06-15T00:12:00.288Z,17.71
2019-06-15T00:13:00.426Z,17.65
2019-06-15T00:14:00.484Z,17.57
2019-06-15T00:15:00.544Z,17.59
2019-06-15T00:16:02.404Z,17.70
2019-06-15T00:17:00.287Z,17.71
2019-06-15T00:18:00.420Z,17.67
2019-06-15T00:19:00.471Z,17.72
2019-06-15T00:20:00.262Z,17.78
2019-06-15T00:21:00.328Z,17.70
2019-06-15T00:22:01.291Z,17.76
2019-06-15T00:23:00.282Z,17.80
2019-06-15T00:24:00.288Z,17.85
2019-06-15T00:25:00.145Z,17.87
2019-06-15T00:26:00.148Z,17.92
2019-06-15T00:28:00.185Z,17.90
2019-06-15T00:29:00.241Z,17.87
2019-06-15T00:30:00.299Z,17.86
2019-06-15T00:31:00.144Z,17.87
2019-06-15T00:32:00.296Z,17.94
2019-06-15T00:33:00.968Z,17.95
2019-06-15T00:34:00.326Z,18.00
2019-06-15T00:35:00.281Z,17.97
2019-06-15T00:36:00.141Z,18.00
2019-06-15T00:37:00.060Z,17.95
2019-06-15T00:38:00.135Z,17.87
2019-06-15T00:39:03.147Z,17.79
2019-06-15T00:40:00.075Z,17.80
2019-06-15T00:41:00.028Z,17.80
2019-06-15T00:41:59.951Z,17.78
2019-06-15T00:43:00.021Z,17.80
2019-06-15T00:45:00.819Z,17.79
2019-06-15T00:46:00.019Z,17.83
2019-06-15T00:47:00.024Z,17.95
2019-06-15T00:48:00.104Z,18.00
2019-06-15T00:49:02.951Z,17.95
2019-06-15T00:49:59.932Z,18.05
2019-06-15T00:50:59.831Z,18.19
2019-06-15T00:52:00.015Z,18.08
2019-06-15T00:52:59.891Z,18.13
2019-06-15T00:53:59.797Z,18.11
2019-06-15T00:54:59.954Z,18.13
2019-06-15T00:56:00.697Z,18.05
2019-06-15T00:58:00.030Z,18.10
2019-06-15T00:59:00.155Z,17.98
2019-06-15T00:59:59.781Z,18.08
2019-06-15T01:00:59.768Z,18.18
2019-06-15T01:02:07.090Z,18.03
2019-06-15T01:03:53.174Z,17.98
2019-06-15T01:04:53.305Z,18.01
2019-06-15T01:05:53.787Z,18.16
2019-06-15T01:06:53.266Z,18.08
2019-06-15T01:07:53.229Z,18.04
2019-06-15T01:08:53.142Z,18.13
2019-06-15T01:09:53.136Z,18.08
2019-06-15T01:10:53.140Z,17.98
2019-06-15T01:11:53.158Z,17.98
2019-06-15T01:12:53.139Z,17.98
2019-06-15T01:13:53.197Z,17.86
2019-06-15T01:14:53.250Z,17.85
2019-06-15T01:15:53.074Z,17.82
2019-06-15T01:16:52.921Z,17.82
2019-06-15T01:17:53.124Z,17.82
2019-06-15T01:19:54.986Z,17.80
2019-06-15T01:20:53.007Z,17.86
2019-06-15T01:21:57.829Z,17.82
2019-06-15T01:22:53.851Z,17.83
2019-06-15T01:23:52.974Z,17.79
2019-06-15T01:25:04.870Z,17.80
2019-06-15T01:25:53.005Z,17.79
2019-06-15T01:26:53.034Z,17.79
2019-06-15T01:27:52.949Z,17.74
2019-06-15T01:28:52.960Z,17.72
2019-06-15T01:29:54.700Z,17.71
2019-06-15T01:30:55.720Z,17.74
2019-06-15T01:31:52.886Z,17.72
2019-06-15T01:32:52.889Z,17.72
2019-06-15T01:33:52.809Z,17.65
2019-06-15T01:34:52.942Z,17.70
2019-06-15T01:35:52.980Z,17.71
2019-06-15T01:36:52.697Z,17.68
2019-06-15T01:37:52.796Z,17.70
2019-06-15T01:38:52.697Z,17.67
2019-06-15T01:39:52.734Z,17.64
2019-06-15T01:40:53.801Z,17.54
2019-06-15T01:41:53.124Z,17.57
2019-06-15T01:42:52.876Z,17.46
2019-06-15T01:43:52.877Z,17.48
2019-06-15T01:45:52.761Z,17.46
2019-06-15T01:46:52.644Z,17.41
2019-06-15T01:47:52.569Z,17.51
2019-06-15T01:48:53.304Z,17.52
2019-06-15T01:49:52.581Z,17.51
2019-06-15T01:50:52.653Z,17.52
2019-06-15T01:51:52.902Z,17.52
2019-06-15T01:52:52.718Z,17.65
2019-06-15T01:53:52.760Z,17.64
2019-06-15T01:54:52.506Z,17.64
2019-06-15T01:55:52.479Z,17.63
2019-06-15T01:56:54.276Z,17.63
2019-06-15T01:57:52.590Z,17.68
2019-06-15T01:58:52.418Z,17.67
2019-06-15T01:59:52.633Z,17.72
2019-06-15T02:00:52.675Z,17.80
2019-06-15T02:01:52.553Z,17.79
2019-06-15T02:02:52.677Z,17.80
2019-06-15T02:03:53.274Z,17.83
2019-06-15T02:04:52.418Z,17.87
2019-06-15T02:05:52.405Z,17.89
2019-06-15T02:06:52.634Z,17.80
2019-06-15T02:07:53.267Z,17.87
2019-06-15T02:08:53.154Z,17.83
2019-06-15T02:09:52.576Z,17.83
2019-06-15T02:10:52.592Z,17.80
2019-06-15T02:11:52.648Z,17.79
2019-06-15T02:12:52.353Z,17.78
2019-06-15T02:13:52.319Z,17.82
2019-06-15T02:14:52.324Z,17.82
2019-06-15T02:15:52.444Z,17.87
2019-06-15T02:16:52.367Z,17.94
2019-06-15T02:17:52.383Z,17.90
2019-06-15T02:18:52.543Z,18.00
2019-06-15T02:19:52.515Z,18.01
2019-06-15T02:20:54.239Z,17.97
2019-06-15T02:21:52.382Z,17.98
2019-06-15T02:22:52.373Z,18.03
2019-06-15T02:23:52.521Z,18.03
2019-06-15T02:24:52.185Z,18.00
2019-06-15T02:26:52.423Z,18.01
2019-06-15T02:27:52.283Z,18.00
2019-06-15T02:28:52.303Z,18.03
2019-06-15T02:29:54.834Z,18.03
2019-06-15T02:30:52.159Z,17.97
2019-06-15T02:31:53.037Z,18.00
2019-06-15T02:32:52.629Z,18.01
2019-06-15T02:33:52.111Z,17.94
2019-06-15T02:34:52.228Z,17.97
2019-06-15T02:35:52.691Z,17.97
2019-06-15T02:36:53.707Z,17.92
2019-06-15T02:37:54.704Z,17.94
2019-06-15T02:38:54.354Z,17.98
2019-06-15T02:39:52.211Z,18.01
2019-06-15T02:40:52.026Z,18.07
2019-06-15T02:41:52.009Z,17.97
2019-06-15T02:42:52.908Z,18.15
2019-06-15T02:43:52.143Z,18.00
2019-06-15T02:44:52.000Z,18.15
2019-06-15T02:45:52.035Z,18.20
2019-06-15T02:46:51.896Z,18.19
2019-06-15T02:47:52.948Z,18.31
2019-06-15T02:48:52.030Z,18.26
2019-06-15T02:49:52.079Z,18.31
2019-06-15T02:50:53.062Z,18.40
2019-06-15T02:51:51.918Z,18.43
2019-06-15T02:52:51.890Z,18.44
2019-06-15T02:53:51.973Z,18.35
2019-06-15T02:54:52.750Z,18.38
2019-06-15T02:55:52.019Z,18.41
2019-06-15T02:56:51.961Z,18.47
2019-06-15T02:57:51.824Z,18.56
2019-06-15T02:58:52.951Z,18.59
2019-06-15T02:59:51.891Z,18.75
2019-06-15T03:00:51.897Z,18.73
2019-06-15T03:01:51.983Z,18.73
2019-06-15T03:02:53.750Z,18.75
2019-06-15T03:03:51.877Z,18.81
2019-06-15T03:04:51.757Z,18.83
2019-06-15T03:05:51.972Z,18.77
2019-06-15T03:06:51.918Z,18.78
2019-06-15T03:07:51.875Z,18.81
2019-06-15T03:08:52.394Z,18.80
2019-06-15T03:09:51.922Z,18.74
2019-06-15T03:10:51.803Z,18.73
2019-06-15T03:11:52.357Z,18.78
2019-06-15T03:12:51.724Z,18.71
2019-06-15T03:13:52.380Z,18.77
2019-06-15T03:14:53.502Z,18.80
2019-06-15T03:15:51.628Z,18.88
2019-06-15T03:16:51.565Z,18.77
2019-06-15T03:17:52.294Z,18.80
2019-06-15T03:18:53.357Z,18.80
2019-06-15T03:19:51.599Z,18.89
2019-06-15T03:20:51.627Z,18.98
2019-06-15T03:21:52.526Z,18.90
2019-06-15T03:22:51.523Z,19.07
2019-06-15T03:23:51.542Z,19.19
2019-06-15T03:24:51.524Z,19.30
2019-06-15T03:26:04.715Z,19.31
2019-06-15T03:26:51.714Z,19.33
2019-06-15T03:27:51.622Z,19.29
2019-06-15T03:28:51.637Z,19.37
2019-06-15T03:29:51.547Z,19.31
2019-06-15T03:30:51.581Z,19.30
2019-06-15T03:31:51.653Z,19.22
2019-06-15T03:32:51.582Z,19.24
2019-06-15T03:33:51.541Z,19.21
2019-06-15T03:34:52.267Z,19.22
2019-06-15T03:35:51.551Z,19.26
2019-06-15T03:36:51.602Z,19.33
2019-06-15T03:37:51.606Z,19.33
2019-06-15T03:38:51.677Z,19.19
2019-06-15T03:39:51.583Z,19.33
2019-06-15T03:40:52.499Z,19.33
2019-06-15T03:41:54.331Z,19.36
2019-06-15T03:42:51.466Z,19.29
2019-06-15T03:43:51.298Z,19.29
2019-06-15T03:44:52.373Z,19.41
2019-06-15T03:45:51.462Z,19.31
2019-06-15T03:46:53.390Z,19.36
2019-06-15T03:47:51.367Z,19.45
2019-06-15T03:48:52.321Z,19.48
2019-06-15T03:49:51.454Z,19.58
2019-06-15T03:50:51.314Z,19.62
2019-06-15T03:51:51.287Z,19.69
2019-06-15T03:52:52.010Z,19.64
2019-06-15T03:53:51.495Z,19.64
2019-06-15T03:54:51.406Z,19.52
2019-06-15T03:55:51.779Z,19.49
2019-06-15T03:56:52.011Z,19.54
2019-06-15T03:57:51.420Z,19.48
2019-06-15T03:58:53.824Z,19.48
2019-06-15T03:59:52.800Z,19.51
2019-06-15T04:00:51.315Z,19.58
2019-06-15T04:01:51.380Z,19.58
2019-06-15T04:02:51.390Z,19.58
2019-06-15T04:03:51.193Z,19.62
2019-06-15T04:04:52.398Z,19.64
2019-06-15T04:05:51.057Z,19.64
2019-06-15T04:06:51.154Z,19.58
2019-06-15T04:07:51.160Z,19.64
2019-06-15T04:08:51.086Z,19.66
2019-06-15T04:09:52.826Z,19.73
2019-06-15T04:10:51.079Z,19.74
2019-06-15T04:11:51.041Z,19.76
2019-06-15T04:12:51.157Z,19.73
2019-06-15T04:13:51.089Z,19.81
2019-06-15T04:14:50.960Z,19.81
2019-06-15T04:15:51.208Z,19.91
2019-06-15T04:16:51.166Z,20.04
2019-06-15T04:17:51.276Z,20.07
2019-06-15T04:18:51.172Z,20.13
2019-06-15T04:19:51.185Z,20.21
2019-06-15T04:20:50.995Z,20.25
2019-06-15T04:21:51.115Z,20.25
2019-06-15T04:22:50.947Z,20.36
2019-06-15T04:23:51.097Z,20.28
2019-06-15T04:24:51.021Z,20.32
2019-06-15T04:25:51.190Z,20.39
2019-06-15T04:26:51.017Z,20.56
2019-06-15T04:27:50.903Z,20.58
2019-06-15T04:28:50.971Z,20.66
2019-06-15T04:29:51.828Z,20.58
2019-06-15T04:30:50.782Z,20.67
2019-06-15T04:31:51.049Z,20.69
2019-06-15T04:32:50.942Z,20.65
2019-06-15T04:33:51.011Z,20.81
2019-06-15T04:34:53.855Z,20.78
2019-06-15T04:35:50.966Z,20.77
2019-06-15T04:36:50.779Z,20.80
2019-06-15T04:38:51.420Z,21.06
2019-06-15T04:40:50.757Z,21.03
2019-06-15T04:41:50.906Z,21.11
2019-06-15T04:42:50.942Z,21.15
2019-06-15T04:43:58.507Z,21.24
2019-06-15T04:45:45.287Z,21.39
2019-06-15T04:46:48.350Z,21.40
2019-06-15T04:47:43.744Z,21.33
2019-06-15T04:48:58.231Z,21.18
2019-06-15T04:49:45.245Z,21.15
2019-06-15T04:50:43.839Z,21.22
2019-06-15T04:51:43.818Z,21.36
2019-06-15T04:52:43.640Z,21.29
2019-06-15T04:53:44.176Z,21.24
2019-06-15T04:54:43.575Z,21.25
2019-06-15T04:55:44.126Z,21.29
2019-06-15T04:56:50.898Z,21.46
2019-06-15T04:57:43.477Z,21.61
2019-06-15T04:58:43.600Z,21.75
2019-06-15T04:59:43.742Z,21.80
2019-06-15T05:00:43.568Z,21.77
2019-06-15T05:01:43.511Z,21.89
2019-06-15T05:02:43.699Z,22.13
2019-06-15T05:03:43.348Z,22.25
2019-06-15T05:04:43.603Z,22.36
2019-06-15T05:05:43.433Z,22.38
2019-06-15T05:06:43.581Z,22.30
2019-06-15T05:07:43.648Z,22.55
2019-06-15T05:08:43.516Z,22.55
2019-06-15T05:09:44.092Z,22.55
2019-06-15T05:10:45.427Z,22.62
2019-06-15T05:11:43.539Z,22.57
2019-06-15T05:12:45.248Z,22.57
2019-06-15T05:14:45.364Z,22.48
2019-06-15T05:15:43.436Z,22.66
2019-06-15T05:16:43.868Z,22.70
2019-06-15T05:17:46.116Z,22.81
2019-06-15T05:18:43.419Z,22.80
2019-06-15T05:19:43.466Z,22.91
2019-06-15T05:20:43.440Z,22.99
2019-06-15T05:21:44.275Z,23.18
2019-06-15T05:22:43.425Z,23.08
2019-06-15T05:23:43.494Z,23.03
2019-06-15T05:24:44.182Z,23.05
2019-06-15T05:25:43.522Z,23.27
2019-06-15T05:26:43.232Z,23.25
2019-06-15T05:27:43.306Z,23.24
2019-06-15T05:28:43.425Z,23.34
2019-06-15T05:29:44.408Z,23.31
2019-06-15T05:30:43.225Z,23.55
2019-06-15T05:31:43.391Z,23.66
2019-06-15T05:32:43.285Z,23.74
2019-06-15T05:33:43.326Z,23.88
2019-06-15T05:34:43.418Z,24.06
2019-06-15T05:35:43.417Z,24.16
2019-06-15T05:36:43.151Z,24.14
2019-06-15T05:37:43.193Z,24.33
2019-06-15T05:38:51.014Z,24.36
2019-06-15T05:40:48.297Z,24.29
2019-06-15T05:41:48.156Z,24.29
2019-06-15T05:43:41.219Z,24.40
2019-06-15T05:44:43.218Z,24.40
2019-06-15T05:46:35.571Z,24.29
2019-06-15T05:47:37.537Z,24.24
2019-06-15T05:48:36.168Z,24.13
2019-06-15T05:49:35.603Z,24.16
2019-06-15T05:51:58.544Z,24.28
2019-06-15T05:52:55.555Z,24.28
2019-06-15T05:54:49.127Z,24.28
2019-06-15T05:55:49.064Z,24.28
2019-06-15T05:57:41.801Z,24.29
2019-06-15T06:00:37.197Z,24.47
2019-06-15T06:01:36.677Z,24.66
2019-06-15T06:03:30.252Z,25.06
2019-06-15T06:04:31.914Z,25.11
2019-06-15T06:06:38.190Z,25.43
2019-06-15T06:07:37.095Z,25.22
2019-06-15T06:09:29.693Z,25.10
2019-06-15T06:10:29.523Z,25.13
2019-06-15T06:13:24.009Z,25.11
2019-06-15T06:15:16.008Z,25.23
2019-06-15T06:16:15.888Z,25.43
2019-06-15T06:18:09.410Z,25.53
2019-06-15T06:21:03.750Z,25.63
2019-06-15T06:22:02.288Z,25.81
2019-06-15T06:24:55.169Z,26.22
2019-06-15T06:26:49.064Z,26.48
2019-06-15T06:27:48.694Z,26.63
2019-06-15T06:29:41.480Z,26.85
2019-06-15T06:30:41.595Z,26.88
2019-06-15T06:32:35.039Z,26.77
2019-06-15T06:33:39.527Z,26.78
2019-06-15T06:35:30.775Z,26.99
2019-06-15T06:36:28.295Z,27.14
2019-06-15T06:39:21.579Z,27.22
2019-06-15T06:41:17.402Z,27.49
2019-06-15T06:42:16.491Z,27.64
2019-06-15T06:44:10.518Z,27.83
2019-06-15T06:45:10.036Z,27.86
2019-06-15T06:48:02.732Z,27.77
2019-06-15T06:51:08.216Z,27.83
2019-06-15T06:53:02.108Z,27.92
2019-06-15T06:54:02.216Z,27.93
2019-06-15T06:55:56.091Z,27.86
2019-06-15T06:58:56.036Z,28.37
2019-06-15T06:59:55.451Z,28.51
2019-06-15T07:00:55.496Z,28.56
2019-06-15T07:01:55.495Z,28.63
2019-06-15T07:02:56.116Z,28.72
2019-06-15T07:03:55.983Z,28.79
2019-06-15T07:04:56.525Z,28.89
2019-06-15T07:07:55.404Z,29.47
2019-06-15T07:08:56.048Z,29.72
2019-06-15T07:09:55.507Z,29.72
2019-06-15T07:11:55.388Z,30.08
2019-06-15T07:12:55.512Z,30.27
2019-06-15T07:13:56.052Z,30.37
2019-06-15T07:17:55.501Z,30.32
2019-06-15T07:20:56.518Z,31.31
2019-06-15T07:21:55.451Z,31.44
2019-06-15T07:23:55.422Z,31.59
2019-06-15T07:28:07.501Z,31.92
2019-06-15T07:28:55.968Z,32.01
2019-06-15T07:29:55.973Z,32.12
2019-06-15T07:31:57.060Z,32.51
2019-06-15T07:32:55.505Z,32.30
2019-06-15T07:33:55.436Z,32.11
2019-06-15T07:34:55.480Z,32.03
2019-06-15T07:36:55.479Z,31.71
2019-06-15T07:37:55.975Z,31.56
2019-06-15T07:40:55.374Z,30.87
2019-06-15T07:46:55.359Z,30.46
2019-06-15T07:48:56.140Z,30.53
2019-06-15T07:49:55.351Z,30.78
2019-06-15T07:51:55.881Z,31.17
2019-06-15T07:52:55.270Z,31.07
2019-06-15T07:54:55.890Z,31.29
2019-06-15T07:55:55.353Z,31.51
2019-06-15T07:56:55.342Z,31.54
2019-06-15T08:01:55.322Z,35.79
2019-06-15T08:02:55.305Z,37.13
2019-06-15T08:03:55.885Z,36.96
2019-06-15T08:04:56.141Z,36.70
2019-06-15T08:05:55.307Z,36.59
2019-06-15T08:07:55.297Z,38.05
2019-06-15T08:09:03.932Z,39.30
2019-06-15T08:10:48.786Z,41.04
2019-06-15T08:15:41.588Z,44.97
2019-06-15T08:19:36.426Z,44.68
2019-06-15T08:21:28.380Z,46.14
2019-06-15T08:22:28.380Z,46.62
2019-06-15T08:24:23.393Z,47.06
2019-06-15T08:27:14.765Z,47.95
2019-06-15T08:31:08.954Z,48.60
2019-06-15T08:33:00.514Z,48.43
2019-06-15T08:34:00.259Z,48.21
2019-06-15T08:36:53.698Z,49.17
2019-06-15T08:38:47.159Z,49.87
2019-06-15T08:40:47.225Z,50.74
2019-06-15T08:41:47.027Z,51.00
2019-06-15T08:42:47.239Z,51.22
2019-06-15T08:43:47.842Z,51.39
2019-06-15T08:44:47.220Z,51.53
2019-06-15T08:45:47.123Z,51.63
2019-06-15T08:46:47.148Z,51.77
2019-06-15T08:47:47.146Z,51.80
2019-06-15T08:48:47.175Z,51.92
2019-06-15T08:49:54.866Z,51.99
2019-06-15T08:51:40.298Z,52.11
2019-06-15T08:52:47.790Z,52.18
2019-06-15T08:54:33.626Z,52.43
2019-06-15T08:55:34.996Z,52.59
2019-06-15T08:57:26.760Z,52.97
2019-06-15T08:58:26.670Z,53.16
2019-06-15T09:00:19.164Z,53.52
2019-06-15T09:01:19.151Z,53.61
2019-06-15T09:02:19.340Z,53.89
2019-06-15T09:03:19.419Z,54.01
2019-06-15T09:04:19.207Z,54.08
2019-06-15T09:05:20.834Z,54.08
2019-06-15T09:06:19.271Z,53.93
2019-06-15T09:07:19.203Z,53.89
2019-06-15T09:08:19.360Z,53.83
2019-06-15T09:09:19.382Z,53.92
2019-06-15T09:10:20.130Z,53.86
2019-06-15T09:11:19.474Z,53.88
2019-06-15T09:12:19.248Z,53.96
2019-06-15T09:13:20.298Z,54.08
2019-06-15T09:14:19.422Z,54.14
2019-06-15T09:15:19.273Z,54.31
2019-06-15T09:16:19.494Z,54.39
2019-06-15T09:17:19.246Z,54.57
2019-06-15T09:18:21.164Z,54.77
2019-06-15T09:19:20.255Z,54.77
2019-06-15T09:20:19.360Z,54.78
2019-06-15T09:22:19.352Z,55.01
2019-06-15T09:23:19.269Z,54.97
2019-06-15T09:24:27.079Z,54.67
2019-06-15T09:26:12.913Z,54.46
2019-06-15T09:27:13.301Z,54.47
2019-06-15T09:28:12.835Z,54.50
2019-06-15T09:29:12.910Z,54.60
2019-06-15T09:30:12.897Z,54.53
2019-06-15T09:31:12.920Z,54.60
2019-06-15T09:32:12.980Z,54.67
2019-06-15T09:33:12.803Z,54.89
2019-06-15T09:34:18.953Z,54.73
2019-06-15T09:35:12.899Z,54.67
2019-06-15T09:36:12.864Z,54.70
2019-06-15T09:37:12.827Z,54.89
2019-06-15T09:38:12.838Z,54.96
2019-06-15T09:39:14.596Z,55.22
2019-06-15T09:40:12.925Z,55.36
2019-06-15T09:41:13.090Z,55.76
2019-06-15T09:42:12.855Z,55.81
2019-06-15T09:43:12.966Z,55.73
2019-06-15T09:44:12.972Z,55.36
2019-06-15T09:45:13.886Z,55.31
2019-06-15T09:46:13.265Z,55.19
2019-06-15T09:47:13.786Z,55.17
2019-06-15T09:48:13.067Z,55.26
2019-06-15T09:49:13.232Z,55.36
2019-06-15T09:50:13.169Z,55.50
2019-06-15T09:51:13.137Z,55.71
2019-06-15T09:52:13.138Z,55.85
2019-06-15T09:54:13.066Z,55.80
2019-06-15T09:55:13.121Z,55.69
2019-06-15T09:56:13.060Z,55.67
2019-06-15T09:57:13.240Z,55.52
2019-06-15T09:58:13.099Z,55.41
2019-06-15T09:59:25.260Z,55.41
2019-06-15T10:00:13.225Z,55.51
2019-06-15T10:01:13.146Z,55.58
2019-06-15T10:02:13.110Z,55.86
2019-06-15T10:03:13.307Z,56.10
2019-06-15T10:04:13.737Z,56.21
2019-06-15T10:05:13.141Z,56.36
2019-06-15T10:06:13.942Z,56.57
2019-06-15T10:07:14.955Z,56.65
2019-06-15T10:08:13.206Z,56.86
2019-06-15T10:09:13.388Z,56.78
2019-06-15T10:10:13.351Z,56.82
2019-06-15T10:11:13.250Z,56.66
2019-06-15T10:12:13.302Z,56.67
2019-06-15T10:13:13.418Z,56.82
2019-06-15T10:14:13.374Z,56.94
2019-06-15T10:15:13.256Z,57.01
2019-06-15T10:16:13.345Z,56.88
2019-06-15T10:17:13.354Z,56.76
2019-06-15T10:18:13.383Z,56.54
2019-06-15T10:19:13.832Z,56.57
2019-06-15T10:20:13.398Z,56.82
2019-06-15T10:21:13.322Z,57.00
2019-06-15T10:22:13.296Z,57.16
2019-06-15T10:23:13.383Z,57.42
2019-06-15T10:24:13.430Z,57.47
2019-06-15T10:25:13.516Z,57.58
2019-06-15T10:26:14.415Z,57.75
2019-06-15T10:27:13.355Z,57.88
2019-06-15T10:28:13.613Z,58.09
2019-06-15T10:29:13.747Z,58.14
2019-06-15T10:30:13.577Z,58.09
2019-06-15T10:31:13.662Z,58.17
2019-06-15T10:32:13.483Z,58.33
2019-06-15T10:33:13.755Z,58.47
2019-06-15T10:34:13.840Z,58.67
2019-06-15T10:35:13.635Z,58.73
2019-06-15T10:36:13.586Z,58.94
2019-06-15T10:37:13.587Z,59.05
2019-06-15T10:38:13.744Z,59.22
2019-06-15T10:39:13.668Z,59.41
2019-06-15T10:40:13.767Z,59.56
2019-06-15T10:41:13.782Z,59.54
2019-06-15T10:42:13.885Z,59.57
2019-06-15T10:43:13.908Z,59.45
2019-06-15T10:44:13.811Z,59.33
2019-06-15T10:45:13.862Z,59.22
2019-06-15T10:46:13.813Z,59.26
2019-06-15T10:48:13.905Z,59.28
2019-06-15T10:49:13.862Z,59.33
2019-06-15T10:50:13.869Z,59.54
2019-06-15T10:51:13.896Z,59.66
2019-06-15T10:52:13.714Z,59.78
2019-06-15T10:53:13.782Z,59.72
2019-06-15T10:54:13.779Z,59.59
2019-06-15T10:55:13.836Z,59.52
2019-06-15T10:56:13.894Z,59.53
2019-06-15T10:58:34.369Z,59.91
2019-06-15T10:59:34.465Z,60.17
2019-06-15T11:01:39.993Z,60.53
2019-06-15T11:02:39.943Z,60.57
2019-06-15T11:04:32.737Z,60.49
2019-06-15T11:05:32.848Z,60.34
2019-06-15T11:06:32.811Z,60.02
2019-06-15T11:07:32.918Z,60.14
2019-06-15T11:08:32.788Z,60.23
2019-06-15T11:09:32.989Z,60.46
2019-06-15T11:10:33.009Z,60.54
2019-06-15T11:11:32.898Z,60.78
2019-06-15T11:12:45.285Z,60.76
2019-06-15T11:13:32.994Z,60.51
2019-06-15T11:14:32.845Z,60.47
2019-06-15T11:15:33.171Z,60.25
2019-06-15T11:16:33.011Z,60.02
2019-06-15T11:17:32.962Z,59.64
2019-06-15T11:18:33.034Z,59.25
2019-06-15T11:19:32.903Z,58.94
2019-06-15T11:20:33.044Z,58.67
2019-06-15T11:21:33.017Z,58.45
2019-06-15T11:22:33.026Z,58.48
2019-06-15T11:23:33.105Z,58.41
2019-06-15T11:24:33.046Z,58.31
2019-06-15T11:25:33.141Z,58.35
2019-06-15T11:26:33.212Z,57.76
2019-06-15T11:27:33.002Z,56.38
2019-06-15T11:28:33.002Z,54.45
2019-06-15T11:29:33.062Z,52.85
2019-06-15T11:30:33.074Z,51.48
2019-06-15T11:31:33.109Z,50.37
2019-06-15T11:32:33.143Z,49.49
2019-06-15T11:33:33.162Z,48.65
2019-06-15T11:34:33.316Z,48.41
2019-06-15T11:35:33.315Z,48.47
2019-06-15T11:36:33.256Z,48.65
2019-06-15T11:37:33.943Z,48.38
2019-06-15T11:38:34.038Z,48.33
2019-06-15T11:40:33.523Z,47.84
2019-06-15T11:41:33.543Z,47.52
2019-06-15T11:42:34.018Z,47.44
2019-06-15T11:43:33.464Z,47.66
2019-06-15T11:44:33.512Z,47.95
2019-06-15T11:45:34.069Z,47.80
2019-06-15T11:46:33.579Z,47.58
2019-06-15T11:47:33.576Z,47.53
2019-06-15T11:48:35.231Z,47.41
2019-06-15T11:49:33.502Z,47.66
2019-06-15T11:50:34.029Z,48.05
2019-06-15T11:51:33.588Z,48.37
2019-06-15T11:53:33.658Z,49.73
2019-06-15T11:54:33.552Z,50.71
2019-06-15T11:55:39.581Z,51.74
2019-06-15T11:56:33.431Z,53.01
2019-06-15T11:58:33.323Z,54.12
2019-06-15T11:59:33.322Z,54.49
2019-06-15T12:00:33.419Z,54.15
2019-06-15T12:01:33.352Z,53.03
2019-06-15T12:02:33.306Z,52.02
2019-06-15T12:03:34.909Z,50.98
2019-06-15T12:04:33.431Z,51.03
2019-06-15T12:05:33.555Z,51.89
2019-06-15T12:06:33.466Z,52.73
2019-06-15T12:07:34.482Z,53.13
2019-06-15T12:08:33.457Z,53.82
2019-06-15T12:09:34.490Z,54.69
2019-06-15T12:10:33.365Z,55.36
2019-06-15T12:11:33.399Z,54.97
2019-06-15T12:12:33.449Z,54.94
2019-06-15T12:13:33.348Z,55.38
2019-06-15T12:14:33.355Z,56.08
2019-06-15T12:15:34.397Z,56.53
2019-06-15T12:16:33.531Z,56.76
2019-06-15T12:17:33.532Z,56.22
2019-06-15T12:18:33.457Z,54.82
2019-06-15T12:19:33.442Z,53.16
2019-06-15T12:20:33.590Z,51.63
2019-06-15T12:21:33.695Z,50.28
2019-06-15T12:22:33.579Z,49.98
2019-06-15T12:23:33.608Z,50.65
2019-06-15T12:24:33.449Z,51.22
2019-06-15T12:25:33.593Z,51.97
2019-06-15T12:26:33.565Z,52.49
2019-06-15T12:27:33.517Z,52.55
2019-06-15T12:28:33.610Z,52.63
2019-06-15T12:29:33.676Z,52.75
2019-06-15T12:30:45.571Z,52.85
2019-06-15T12:31:36.342Z,52.69
2019-06-15T12:32:34.348Z,52.85
2019-06-15T12:33:33.737Z,52.87
2019-06-15T12:34:33.725Z,52.93
2019-06-15T12:35:33.750Z,53.28
2019-06-15T12:36:33.701Z,53.39
2019-06-15T12:37:33.735Z,53.50
2019-06-15T12:38:33.681Z,53.64
2019-06-15T12:39:33.623Z,53.82
2019-06-15T12:40:33.798Z,53.90
2019-06-15T12:41:33.646Z,53.93
2019-06-15T12:42:33.622Z,53.90
2019-06-15T12:43:33.625Z,53.80
2019-06-15T12:44:33.619Z,53.69
2019-06-15T12:45:33.745Z,53.55
2019-06-15T12:46:33.770Z,53.50
2019-06-15T12:47:33.863Z,53.29
2019-06-15T12:48:33.705Z,52.88
2019-06-15T12:49:33.873Z,52.84
2019-06-15T12:50:33.836Z,52.68
2019-06-15T12:51:33.743Z,52.71
2019-06-15T12:52:33.740Z,52.56
2019-06-15T12:53:33.803Z,52.44
2019-06-15T12:54:33.822Z,52.20
2019-06-15T12:55:33.761Z,52.17
2019-06-15T12:56:33.882Z,52.04
2019-06-15T12:57:34.115Z,52.24
2019-06-15T12:58:33.811Z,52.50
2019-06-15T12:59:33.939Z,52.78
2019-06-15T13:00:33.864Z,52.90
2019-06-15T13:01:33.958Z,53.09
2019-06-15T13:02:33.950Z,53.29
2019-06-15T13:03:34.059Z,53.32
2019-06-15T13:04:34.033Z,53.07
2019-06-15T13:05:33.923Z,53.19
2019-06-15T13:06:34.234Z,53.09
2019-06-15T13:07:33.969Z,53.03
2019-06-15T13:08:33.995Z,52.92
2019-06-15T13:09:33.946Z,52.84
2019-06-15T13:10:34.010Z,52.87
2019-06-15T13:11:34.034Z,52.84
2019-06-15T13:12:33.974Z,52.90
2019-06-15T13:13:34.020Z,53.00
2019-06-15T13:14:34.089Z,52.92
2019-06-15T13:15:34.095Z,52.87
2019-06-15T13:16:39.530Z,52.88
2019-06-15T13:17:34.505Z,52.87
2019-06-15T13:18:34.123Z,52.81
2019-06-15T13:19:34.121Z,52.85
2019-06-15T13:20:34.118Z,52.85
2019-06-15T13:21:34.250Z,52.69
2019-06-15T13:22:34.222Z,52.42
2019-06-15T13:23:34.155Z,52.54
2019-06-15T13:24:34.127Z,52.46
2019-06-15T13:25:34.132Z,51.62
2019-06-15T13:26:34.118Z,49.98
2019-06-15T13:27:34.378Z,48.86
2019-06-15T13:28:34.314Z,48.72
2019-06-15T13:30:34.553Z,48.33
2019-06-15T13:31:34.338Z,47.15
2019-06-15T13:32:34.491Z,45.84
2019-06-15T13:33:34.596Z,44.64
2019-06-15T13:34:35.132Z,43.65
2019-06-15T13:36:34.594Z,42.07
2019-06-15T13:39:34.671Z,41.47
2019-06-15T13:40:36.236Z,41.65
2019-06-15T13:41:34.613Z,42.72
2019-06-15T13:42:34.644Z,43.84
2019-06-15T13:43:34.660Z,44.81
2019-06-15T13:45:34.656Z,46.50
2019-06-15T13:46:34.678Z,47.01
2019-06-15T13:47:34.498Z,47.49
2019-06-15T13:48:34.685Z,47.74
2019-06-15T13:49:34.518Z,48.22
2019-06-15T13:50:34.684Z,48.56
2019-06-15T13:51:34.553Z,49.07
2019-06-15T13:52:39.129Z,49.33
2019-06-15T13:53:34.518Z,49.47
2019-06-15T13:54:34.978Z,49.58
2019-06-15T13:55:34.509Z,49.56
2019-06-15T13:56:34.448Z,49.63
2019-06-15T13:57:34.477Z,49.87
2019-06-15T13:58:34.426Z,50.11
2019-06-15T13:59:34.324Z,50.09
2019-06-15T14:00:34.417Z,50.34
2019-06-15T14:01:36.958Z,50.52
2019-06-15T14:02:34.521Z,50.66
2019-06-15T14:03:34.419Z,50.41
2019-06-15T14:04:34.435Z,50.40
2019-06-15T14:05:34.554Z,50.55
2019-06-15T14:06:34.648Z,50.63
2019-06-15T14:07:34.550Z,50.79
2019-06-15T14:08:34.429Z,50.82
2019-06-15T14:09:34.594Z,51.00
2019-06-15T14:10:34.513Z,51.15
2019-06-15T14:11:34.526Z,51.17
2019-06-15T14:12:34.603Z,51.20
2019-06-15T14:13:34.605Z,51.19
2019-06-15T14:14:34.604Z,51.25
2019-06-15T14:15:34.455Z,51.16
2019-06-15T14:16:34.652Z,51.12
2019-06-15T14:17:34.536Z,51.15
2019-06-15T14:18:34.603Z,50.97
2019-06-15T14:19:34.666Z,50.89
2019-06-15T14:20:34.549Z,50.72
2019-06-15T14:21:34.648Z,50.39
2019-06-15T14:22:35.591Z,50.09
2019-06-15T14:23:34.834Z,49.92
2019-06-15T14:24:34.798Z,49.87
2019-06-15T14:25:34.733Z,49.83
2019-06-15T14:26:34.659Z,49.71
2019-06-15T14:27:34.663Z,49.67
2019-06-15T14:28:34.659Z,49.47
2019-06-15T14:29:34.758Z,49.48
2019-06-15T14:30:34.725Z,49.56
2019-06-15T14:31:49.268Z,49.63
2019-06-15T14:32:34.818Z,49.68
2019-06-15T14:33:34.714Z,49.66
2019-06-15T14:34:34.824Z,49.80
2019-06-15T14:35:35.424Z,49.70
2019-06-15T14:36:34.832Z,49.90
2019-06-15T14:37:34.720Z,49.89
2019-06-15T14:38:34.806Z,49.74
2019-06-15T14:39:34.878Z,49.58
2019-06-15T14:40:34.904Z,49.47
2019-06-15T14:41:36.567Z,49.16
2019-06-15T14:42:34.870Z,48.95